Time;durP1;ratioP1;P1;durP2;ratioP2;P2;SDS_P1;SDS_P2;PMS_P1;PMS_P2;Temp;Humidity;BMP_temperature;BMP_pressure;BME280_temperature;BME280_humidity;BME280_pressure;Samples;Min_cycle;Max_cycle;Signal;HPM_P1;HPM_P2
2021/07/28 00:01:26;;;;;;;13.35;10.52;;;;;;;22.11;67.44;95402.13;5108259;28;20043;-76
2021/07/28 00:03:53;;;;;;;21.50;10.90;;;;;;;22.06;67.81;95399.56;5108951;28;20156;-75
2021/07/28 00:06:28;;;;;;;14.55;10.82;;;;;;;21.96;67.56;95406.59;5107558;28;20039;-75
2021/07/28 00:08:55;;;;;;;22.70;11.18;;;;;;;21.81;68.29;95404.19;5110367;27;20126;-75
2021/07/28 00:11:22;;;;;;;19.35;10.63;;;;;;;21.76;68.22;95407.69;5108943;28;20067;-75
2021/07/28 00:13:49;;;;;;;19.27;11.07;;;;;;;21.81;68.04;95398.88;5110990;27;20118;-75
2021/07/28 00:16:17;;;;;;;14.30;10.60;;;;;;;21.85;68.38;95394.56;5112614;27;20485;-75
2021/07/28 00:19:03;;;;;;;21.85;11.63;;;;;;;21.91;69.56;95404.03;5108379;28;20067;-75
2021/07/28 00:24:16;;;;;;;24.73;11.90;;;;;;;21.81;70.15;95393.59;5092205;28;20040;-75
2021/07/28 00:26:42;;;;;;;24.23;10.75;;;;;;;21.86;69.73;95395.34;5110364;27;20039;-75
2021/07/28 00:29:10;;;;;;;21.90;11.23;;;;;;;21.89;69.44;95398.22;5111666;27;20825;-75
2021/07/28 00:31:36;;;;;;;21.00;11.13;;;;;;;21.88;69.72;95396.66;5113425;27;20397;-75
2021/07/28 00:34:03;;;;;;;17.40;10.98;;;;;;;21.86;69.98;95396.16;5109621;27;20043;-75
2021/07/28 00:36:30;;;;;;;30.42;12.68;;;;;;;21.80;70.06;95386.69;5110207;27;20031;-74
2021/07/28 00:38:57;;;;;;;20.50;11.88;;;;;;;21.76;70.04;95396.31;5109776;27;20497;-75
2021/07/28 00:41:23;;;;;;;23.75;11.68;;;;;;;21.73;71.10;95391.56;5107793;28;20040;-75
2021/07/28 00:43:50;;;;;;;28.10;12.70;;;;;;;21.69;73.21;95385.28;5110850;27;20094;-75
2021/07/28 00:46:17;;;;;;;28.10;12.32;;;;;;;21.66;73.51;95385.84;5109872;27;20440;-75
2021/07/28 00:48:44;;;;;;;23.10;12.00;;;;;;;21.64;72.56;95393.28;5113144;27;20122;-75
2021/07/28 00:51:11;;;;;;;23.38;11.98;;;;;;;21.56;72.64;95384.91;5109578;27;20096;-75
2021/07/28 00:53:38;;;;;;;48.03;12.38;;;;;;;21.49;71.99;95384.50;5109169;27;20040;-76
2021/07/28 00:56:05;;;;;;;20.20;12.13;;;;;;;21.35;72.74;95383.59;5109317;27;20043;-76
2021/07/28 00:58:31;;;;;;;22.58;12.40;;;;;;;21.29;72.75;95392.69;5109439;27;20047;-76
2021/07/28 01:00:59;;;;;;;13.18;11.35;;;;;;;21.16;72.94;95392.31;5107024;27;20444;-76
2021/07/28 01:03:26;;;;;;;24.42;13.93;;;;;;;21.03;73.05;95390.38;5109844;27;20036;-76
2021/07/28 01:06:00;;;;;;;23.20;12.65;;;;;;;20.90;73.53;95385.75;5108624;27;20043;-76
2021/07/28 01:08:27;;;;;;;30.58;12.98;;;;;;;20.81;73.46;95389.03;5108225;27;20063;-77
2021/07/28 01:10:59;;;;;;;24.75;12.73;;;;;;;20.79;73.22;95385.84;5112523;27;20432;-74
2021/07/28 01:13:31;;;;;;;21.60;12.70;;;;;;;20.75;73.47;95384.84;5109548;27;20041;-75
2021/07/28 01:16:13;;;;;;;21.40;12.50;;;;;;;20.73;73.56;95376.41;5091776;27;20042;-77
2021/07/28 01:18:41;;;;;;;18.00;11.43;;;;;;;20.70;73.75;95379.59;5106809;27;20496;-77
2021/07/28 01:21:11;;;;;;;28.30;13.20;;;;;;;20.65;75.03;95379.66;5109414;27;20043;-77
2021/07/28 01:23:39;;;;;;;19.60;12.63;;;;;;;20.60;75.58;95371.75;5108558;27;20050;-77
2021/07/28 01:26:06;;;;;;;25.70;13.75;;;;;;;20.54;75.82;95378.16;5107631;28;20050;-77
2021/07/28 01:28:35;;;;;;;19.90;14.50;;;;;;;20.42;76.53;95365.31;5107465;28;20039;-77
2021/07/28 01:31:10;;;;;;;16.95;12.50;;;;;;;20.40;77.20;95373.53;5109499;27;20043;-78
2021/07/28 01:33:43;;;;;;;31.23;15.43;;;;;;;20.32;78.18;95376.78;5109238;27;20485;-77
2021/07/28 01:36:21;;;;;;;28.85;14.73;;;;;;;20.31;78.83;95371.75;5108282;27;20047;-77
2021/07/28 01:38:49;;;;;;;26.20;14.43;;;;;;;20.26;79.39;95369.97;5109715;27;20032;-77
2021/07/28 01:41:17;;;;;;;22.65;13.82;;;;;;;20.22;79.97;95371.56;5108655;27;20035;-76
2021/07/28 01:43:44;;;;;;;42.75;16.80;;;;;;;20.15;80.53;95366.63;5107639;28;20043;-75
2021/07/28 01:46:13;;;;;;;24.65;14.52;;;;;;;20.09;80.98;95367.72;5107281;28;20043;-75
2021/07/28 01:48:39;;;;;;;21.98;14.80;;;;;;;19.99;81.63;95363.31;5107457;27;20039;-75
2021/07/28 01:51:06;;;;;;;32.92;15.73;;;;;;;19.98;82.43;95372.31;5109242;27;20043;-75
2021/07/28 01:53:33;;;;;;;31.27;15.90;;;;;;;19.94;82.83;95371.28;5105984;28;20508;-76
2021/07/28 01:56:00;;;;;;;27.40;16.17;;;;;;;19.98;82.38;95372.31;5091838;28;20043;-75
2021/07/28 01:58:27;;;;;;;35.10;16.60;;;;;;;20.01;82.22;95371.75;5107480;27;20071;-75
2021/07/28 02:00:55;;;;;;;26.13;15.27;;;;;;;20.08;81.62;95360.88;5109876;27;20048;-75
2021/07/28 02:03:22;;;;;;;21.95;15.68;;;;;;;20.11;81.26;95370.09;5109356;27;20035;-75
2021/07/28 02:05:49;;;;;;;30.38;16.33;;;;;;;20.07;82.09;95363.78;5108539;27;20040;-75
2021/07/28 02:08:18;;;;;;;26.00;15.10;;;;;;;20.10;81.96;95365.88;5108005;27;20487;-75
2021/07/28 02:10:47;;;;;;;26.85;16.27;;;;;;;20.11;82.44;95370.09;5108429;27;20430;-78
2021/07/28 02:13:15;;;;;;;23.02;15.25;;;;;;;20.05;82.30;95353.50;5108435;28;20044;-78
2021/07/28 02:15:43;;;;;;;24.27;16.10;;;;;;;20.15;81.82;95355.25;5109209;27;20097;-77
2021/07/28 02:18:10;;;;;;;23.17;14.00;;;;;;;20.23;80.98;95354.66;5105812;28;20028;-78
2021/07/28 02:20:37;;;;;;;24.15;13.82;;;;;;;20.38;80.21;95359.81;5107125;27;20044;-77
2021/07/28 02:23:05;;;;;;;24.00;14.20;;;;;;;20.48;78.86;95347.53;5088265;27;20039;-76
2021/07/28 02:25:32;;;;;;;22.08;15.40;;;;;;;20.68;77.40;95351.84;5109716;27;20048;-77
2021/07/28 02:27:59;;;;;;;21.05;14.90;;;;;;;20.75;77.38;95363.66;5110950;27;20039;-77
2021/07/28 02:30:25;;;;;;;26.98;14.23;;;;;;;20.68;78.10;95368.50;5107674;27;20047;-77
2021/07/28 02:32:52;;;;;;;25.98;14.48;;;;;;;20.67;77.59;95372.25;5106224;28;20100;-77
2021/07/28 02:35:19;;;;;;;22.73;13.80;;;;;;;20.51;77.51;95365.47;5109339;27;20039;-77
2021/07/28 02:37:46;;;;;;;23.15;15.18;;;;;;;20.48;77.65;95369.50;5110550;27;20054;-77
2021/07/28 02:40:18;;;;;;;23.15;14.98;;;;;;;20.34;78.16;95369.34;5105975;27;20055;-77
2021/07/28 02:42:45;;;;;;;21.77;14.38;;;;;;;20.24;78.25;95364.19;5106276;28;20046;-79
2021/07/28 02:45:12;;;;;;;28.00;16.73;;;;;;;20.17;78.36;95355.78;5107976;27;20043;-77
2021/07/28 02:47:39;;;;;;;28.90;15.50;;;;;;;20.14;78.29;95358.97;5107672;27;20050;-78
2021/07/28 02:50:07;;;;;;;21.30;14.52;;;;;;;20.13;78.36;95363.47;5105064;28;20044;-78
2021/07/28 02:52:34;;;;;;;23.90;15.52;;;;;;;20.07;79.47;95358.50;5107991;27;20518;-78
2021/07/28 02:55:06;;;;;;;22.00;15.90;;;;;;;20.05;79.11;95362.19;5107580;27;20100;-78
2021/07/28 02:57:34;;;;;;;27.17;15.80;;;;;;;20.00;79.09;95359.59;5109059;27;20046;-77
2021/07/28 03:00:01;;;;;;;35.65;17.23;;;;;;;19.90;79.33;95365.00;5107685;27;20071;-77
2021/07/28 03:02:28;;;;;;;31.17;15.68;;;;;;;19.81;80.62;95369.28;5107587;27;20114;-77
2021/07/28 03:04:55;;;;;;;30.08;15.15;;;;;;;19.78;80.60;95373.25;5105709;28;20517;-77
2021/07/28 03:07:22;;;;;;;24.48;16.40;;;;;;;19.68;80.73;95374.09;5105977;28;20052;-77
2021/07/28 03:09:48;;;;;;;22.95;15.70;;;;;;;19.64;81.10;95377.56;5106318;27;20050;-77
2021/07/28 03:12:15;;;;;;;23.35;16.02;;;;;;;19.58;81.75;95373.38;5109136;27;20047;-77
2021/07/28 03:14:42;;;;;;;29.50;15.65;;;;;;;19.50;81.16;95372.13;5107371;27;20054;-77
2021/07/28 03:17:09;;;;;;;21.15;15.95;;;;;;;19.42;81.14;95370.03;5106625;28;20040;-77
2021/07/28 03:19:36;;;;;;;25.30;16.40;;;;;;;19.44;81.14;95373.19;5109111;27;20042;-76
2021/07/28 03:22:03;;;;;;;20.40;15.57;;;;;;;19.45;80.69;95374.78;5086710;28;20047;-78
2021/07/28 03:24:30;;;;;;;28.77;16.33;;;;;;;19.45;80.49;95385.34;5105808;28;20481;-78
2021/07/28 03:26:56;;;;;;;22.85;17.23;;;;;;;19.39;80.60;95391.72;5108760;28;20046;-76
2021/07/28 03:29:23;;;;;;;23.30;16.73;;;;;;;19.39;80.56;95386.41;5106123;28;20477;-78
2021/07/28 03:31:50;;;;;;;30.08;18.02;;;;;;;19.37;80.76;95394.63;5108253;28;20046;-76
2021/07/28 03:34:17;;;;;;;24.92;18.05;;;;;;;19.32;80.99;95392.03;5088481;28;20059;-75
2021/07/28 03:36:44;;;;;;;21.02;17.20;;;;;;;19.35;81.00;95391.47;5107304;28;20046;-76
2021/07/28 03:39:11;;;;;;;26.10;17.38;;;;;;;19.40;80.61;95403.88;5105414;28;20051;-76
2021/07/28 03:41:37;;;;;;;29.70;16.92;;;;;;;19.45;80.78;95390.63;5105470;28;20050;-75
2021/07/28 03:44:05;;;;;;;27.13;16.98;;;;;;;19.43;81.99;95392.75;5090043;28;20044;-76
2021/07/28 03:46:31;;;;;;;22.92;16.77;;;;;;;19.47;81.91;95396.44;5108544;28;20040;-76
2021/07/28 03:48:58;;;;;;;32.30;18.58;;;;;;;19.46;81.92;95398.28;5088047;28;20051;-74
2021/07/28 03:51:25;;;;;;;27.67;16.92;;;;;;;19.54;82.08;95391.63;5108373;28;20044;-76
2021/07/28 03:53:52;;;;;;;29.90;17.42;;;;;;;19.59;82.04;95396.88;5108472;28;20051;-76
2021/07/28 03:56:22;;;;;;;32.78;18.02;;;;;;;19.59;81.47;95391.59;5105101;28;20119;-75
2021/07/28 03:58:57;;;;;;;29.30;18.98;;;;;;;19.65;82.03;95395.78;5089045;28;20039;-76
2021/07/28 04:01:23;;;;;;;29.08;18.65;;;;;;;19.67;84.07;95398.94;5107734;28;20461;-76
2021/07/28 04:03:51;;;;;;;27.35;17.25;;;;;;;19.67;84.30;95393.66;5106648;28;20075;-75
2021/07/28 04:06:19;;;;;;;29.60;16.17;;;;;;;19.71;83.15;95393.09;5108475;28;20045;-75
2021/07/28 04:08:45;;;;;;;29.65;17.20;;;;;;;19.75;83.21;95397.59;5108925;28;20042;-75
2021/07/28 04:11:12;;;;;;;19.88;15.18;;;;;;;19.80;83.65;95396.78;5088492;28;20047;-75
2021/07/28 04:13:39;;;;;;;20.33;17.13;;;;;;;19.80;83.61;95402.06;5106983;28;20039;-75
2021/07/28 04:16:06;;;;;;;25.08;16.00;;;;;;;19.80;83.95;95397.56;5108249;28;20058;-74
2021/07/28 04:18:33;;;;;;;27.38;18.77;;;;;;;19.85;84.23;95404.66;5106677;28;20123;-75
2021/07/28 04:21:00;;;;;;;29.67;18.10;;;;;;;19.87;84.14;95399.91;5108341;28;20044;-75
2021/07/28 04:23:27;;;;;;;25.00;17.50;;;;;;;19.88;83.87;95393.56;5109239;28;20110;-76
2021/07/28 04:25:54;;;;;;;29.88;17.63;;;;;;;19.96;84.40;95400.09;5089890;28;20039;-74
2021/07/28 04:28:20;;;;;;;28.58;19.00;;;;;;;20.00;84.27;95396.59;5107995;28;20109;-75
2021/07/28 04:30:47;;;;;;;32.85;18.75;;;;;;;20.05;84.67;95388.63;5105130;28;20035;-75
2021/07/28 04:33:14;;;;;;;26.27;18.05;;;;;;;20.10;84.89;95384.41;5105342;28;20043;-75
2021/07/28 04:35:41;;;;;;;30.52;19.55;;;;;;;20.13;85.34;95389.13;5106781;28;20039;-75
2021/07/28 04:38:08;;;;;;;28.17;18.80;;;;;;;20.20;85.71;95379.81;5108302;28;20039;-74
2021/07/28 04:40:34;;;;;;;34.17;19.98;;;;;;;20.24;84.35;95385.34;5107580;27;20051;-75
2021/07/28 04:43:01;;;;;;;35.13;19.15;;;;;;;20.32;84.34;95376.78;5109513;27;20119;-75
2021/07/28 04:45:28;;;;;;;27.90;18.65;;;;;;;20.42;84.43;95392.56;5111431;27;20040;-75
2021/07/28 04:47:55;;;;;;;30.85;19.90;;;;;;;20.50;84.30;95387.72;5112389;27;20044;-76
2021/07/28 04:50:22;;;;;;;26.27;17.27;;;;;;;20.56;82.95;95394.53;5107328;28;20483;-75
2021/07/28 04:52:49;;;;;;;27.95;17.77;;;;;;;20.60;82.16;95392.94;5108292;27;20111;-75
2021/07/28 04:55:15;;;;;;;31.45;16.73;;;;;;;20.64;81.23;95390.53;5111389;27;20056;-76
2021/07/28 04:57:42;;;;;;;29.02;16.35;;;;;;;20.69;80.20;95391.28;5111215;27;20048;-75
2021/07/28 05:00:09;;;;;;;30.10;18.20;;;;;;;20.70;79.34;95382.25;5110933;27;20530;-75
2021/07/28 05:02:36;;;;;;;26.60;18.08;;;;;;;20.81;80.37;95383.72;5111230;27;20043;-75
2021/07/28 05:05:04;;;;;;;28.23;16.85;;;;;;;20.90;80.23;95393.69;5111277;27;20043;-75
2021/07/28 05:07:32;;;;;;;23.85;18.92;;;;;;;20.89;81.09;95395.56;5108384;27;20039;-75
2021/07/28 05:09:59;;;;;;;27.05;19.05;;;;;;;20.92;82.20;95389.69;5109500;27;20466;-75
2021/07/28 05:12:27;;;;;;;27.50;18.98;;;;;;;20.96;81.19;95389.91;5108276;27;20500;-76
2021/07/28 05:14:55;;;;;;;29.30;18.77;;;;;;;21.00;80.63;95385.63;5110732;27;20043;-75
2021/07/28 05:17:24;;;;;;;25.15;17.58;;;;;;;21.03;81.34;95390.38;5111381;27;20035;-75
2021/07/28 05:19:52;;;;;;;31.85;18.52;;;;;;;21.05;80.52;95390.88;5113771;27;20093;-74
2021/07/28 05:22:18;;;;;;;31.85;18.95;;;;;;;21.06;82.32;95379.19;5107767;28;20046;-75
2021/07/28 05:24:45;;;;;;;28.50;16.75;;;;;;;21.18;81.82;95387.50;5109470;27;20040;-75
2021/07/28 05:27:12;;;;;;;24.65;16.75;;;;;;;21.28;80.38;95381.28;5108982;27;20505;-74
2021/07/28 05:29:39;;;;;;;25.33;16.25;;;;;;;21.38;78.73;95380.38;5110530;27;20504;-75
2021/07/28 05:32:06;;;;;;;22.05;15.10;;;;;;;21.45;78.34;95386.13;5110665;27;20686;-74
2021/07/28 05:34:33;;;;;;;20.70;15.20;;;;;;;21.53;76.59;95382.84;5110059;27;20046;-74
2021/07/28 05:36:59;;;;;;;23.35;14.82;;;;;;;21.57;74.32;95383.84;5110351;27;20035;-74
2021/07/28 05:39:26;;;;;;;20.95;12.32;;;;;;;21.69;72.04;95387.94;5107216;28;20047;-75
2021/07/28 05:41:54;;;;;;;22.85;13.15;;;;;;;21.73;70.41;95389.72;5105792;27;20739;-74
2021/07/28 05:44:20;;;;;;;22.83;13.80;;;;;;;21.79;71.54;95385.13;5107355;27;20046;-74
2021/07/28 05:46:47;;;;;;;19.70;11.48;;;;;;;21.89;67.63;95384.97;5091540;28;20047;-75
2021/07/28 05:49:14;;;;;;;25.83;12.98;;;;;;;22.05;70.62;95390.81;5108393;27;20043;-74
2021/07/28 05:51:41;;;;;;;25.73;12.82;;;;;;;22.10;68.94;95389.97;5110369;27;20044;-75
2021/07/28 05:54:08;;;;;;;22.40;13.07;;;;;;;22.18;69.00;95381.31;5109848;27;20039;-75
2021/07/28 05:56:34;;;;;;;19.95;12.55;;;;;;;22.28;69.16;95381.19;5111191;27;20049;-75
2021/07/28 05:59:01;;;;;;;23.88;14.25;;;;;;;22.41;68.67;95379.63;5107537;28;20122;-75
2021/07/28 06:01:29;;;;;;;26.38;15.02;;;;;;;22.44;69.58;95372.97;5112182;27;20052;-75
2021/07/28 06:03:56;;;;;;;26.90;13.18;;;;;;;22.55;68.95;95374.34;5108609;27;20075;-74
2021/07/28 06:06:26;;;;;;;28.48;13.57;;;;;;;22.62;70.58;95379.28;5108220;27;20108;-75
2021/07/28 06:08:56;;;;;;;21.33;14.27;;;;;;;22.56;71.74;95378.56;5108164;28;20043;-75
2021/07/28 06:11:23;;;;;;;21.83;14.23;;;;;;;22.69;70.55;95380.47;5108651;27;20043;-75
2021/07/28 06:13:50;;;;;;;23.92;13.30;;;;;;;22.86;68.61;95373.78;5108707;27;20047;-75
2021/07/28 06:16:17;;;;;;;22.52;14.43;;;;;;;22.94;68.19;95359.81;5111032;27;20118;-74
2021/07/28 06:18:44;;;;;;;24.13;13.05;;;;;;;23.21;67.51;95374.16;5091488;28;20126;-73
2021/07/28 06:21:11;;;;;;;34.78;15.18;;;;;;;23.39;66.87;95370.59;5107433;28;20049;-73
2021/07/28 06:23:38;;;;;;;22.65;11.82;;;;;;;23.53;65.29;95369.75;5093003;27;20043;-74
2021/07/28 06:26:05;;;;;;;22.95;12.80;;;;;;;23.73;64.56;95374.59;5107479;27;20045;-74
2021/07/28 06:28:35;;;;;;;20.17;12.88;;;;;;;23.81;64.73;95376.59;5109196;27;20644;-74
2021/07/28 06:31:02;;;;;;;20.83;14.40;;;;;;;23.96;65.25;95377.31;5110371;27;20046;-74
2021/07/28 06:33:29;;;;;;;24.42;12.88;;;;;;;24.00;64.40;95378.28;5107127;28;20043;-76
2021/07/28 06:35:56;;;;;;;23.00;13.07;;;;;;;24.08;63.63;95374.91;5110143;27;20058;-73
2021/07/28 06:38:23;;;;;;;16.50;12.32;;;;;;;24.12;64.16;95383.84;5106569;27;20039;-75
2021/07/28 06:40:49;;;;;;;25.27;12.95;;;;;;;24.29;63.27;95387.69;5107024;27;20035;-74
2021/07/28 06:43:21;;;;;;;25.55;13.30;;;;;;;24.36;62.84;95380.06;5105172;28;20439;-75
2021/07/28 06:45:48;;;;;;;20.45;12.48;;;;;;;24.46;62.43;95379.81;5107972;27;20054;-76
2021/07/28 06:48:15;;;;;;;24.73;13.20;;;;;;;24.60;63.01;95369.88;5107151;27;20036;-76
2021/07/28 06:50:41;;;;;;;34.90;13.70;;;;;;;24.77;63.14;95379.03;5109412;27;20399;-75
2021/07/28 06:53:08;;;;;;;23.67;13.23;;;;;;;24.89;62.00;95376.56;5106333;28;20548;-76
2021/07/28 06:55:35;;;;;;;27.10;12.57;;;;;;;25.08;61.79;95367.50;5106533;27;20501;-76
2021/07/28 06:58:02;;;;;;;20.83;13.20;;;;;;;25.23;61.23;95376.94;5109315;27;20031;-77
2021/07/28 07:00:29;;;;;;;27.33;13.43;;;;;;;25.37;61.23;95375.75;5106838;28;20035;-77
2021/07/28 07:02:57;;;;;;;23.45;12.68;;;;;;;25.53;60.07;95362.75;5109680;27;20410;-77
2021/07/28 07:05:25;;;;;;;18.92;12.52;;;;;;;25.70;58.80;95367.31;5108596;27;20062;-77
2021/07/28 07:07:52;;;;;;;26.92;12.40;;;;;;;25.86;59.84;95369.50;5107011;27;20032;-77
2021/07/28 07:10:20;;;;;;;27.65;14.35;;;;;;;25.85;58.44;95368.69;5107231;28;20511;-77
2021/07/28 07:12:47;;;;;;;30.70;13.77;;;;;;;26.03;59.19;95364.16;5109459;27;20062;-77
2021/07/28 07:15:14;;;;;;;16.88;12.65;;;;;;;26.12;60.96;95359.59;5106892;27;20048;-77
2021/07/28 07:17:41;;;;;;;22.08;12.10;;;;;;;26.26;56.95;95358.63;5106969;27;20055;-77
2021/07/28 07:20:08;;;;;;;21.08;12.50;;;;;;;26.38;54.95;95364.09;5108886;27;20032;-76
2021/07/28 07:22:35;;;;;;;18.17;11.40;;;;;;;26.51;56.38;95365.00;5106817;28;20136;-77
2021/07/28 07:25:03;;;;;;;23.70;11.95;;;;;;;26.74;52.94;95359.41;5108496;28;20036;-77
2021/07/28 07:27:30;;;;;;;22.52;11.48;;;;;;;26.94;52.69;95363.25;5107291;28;20504;-76
2021/07/28 07:29:57;;;;;;;20.00;11.00;;;;;;;27.02;51.53;95365.09;5107794;28;20093;-77
2021/07/28 07:32:29;;;;;;;26.48;11.25;;;;;;;27.19;52.17;95362.34;5108997;28;20108;-78
2021/07/28 07:34:58;;;;;;;21.15;11.20;;;;;;;27.40;51.26;95369.63;5110049;28;20066;-77
2021/07/28 07:37:25;;;;;;;16.60;10.10;;;;;;;27.61;49.73;95370.41;5107674;28;20035;-77
2021/07/28 07:39:53;;;;;;;20.02;10.60;;;;;;;27.80;49.49;95379.84;5110996;28;20546;-77
2021/07/28 07:42:20;;;;;;;19.52;10.00;;;;;;;27.92;49.97;95374.59;5088347;28;20039;-76
2021/07/28 07:44:48;;;;;;;22.55;9.73;;;;;;;27.84;47.44;95378.09;5110218;28;20122;-74
2021/07/28 07:47:16;;;;;;;19.40;9.95;;;;;;;28.02;47.96;95368.84;5092396;28;20052;-76
2021/07/28 07:49:43;;;;;;;10.38;8.80;;;;;;;28.21;46.36;95360.28;5108402;28;20032;-76
2021/07/28 07:52:10;;;;;;;16.20;9.73;;;;;;;28.39;47.74;95363.56;5090490;28;20067;-76
2021/07/28 07:54:37;;;;;;;19.08;9.82;;;;;;;28.48;49.71;95368.06;5106472;28;20490;-76
2021/07/28 07:57:04;;;;;;;25.55;10.57;;;;;;;28.65;46.08;95356.38;5104671;28;20040;-76
2021/07/28 07:59:31;;;;;;;26.60;11.23;;;;;;;28.86;48.61;95367.78;5106871;28;20036;-76
2021/07/28 08:01:57;;;;;;;18.15;9.93;;;;;;;28.96;45.77;95355.84;5104223;28;20051;-76
2021/07/28 08:04:24;;;;;;;19.48;9.68;;;;;;;29.20;45.00;95365.00;5088254;28;20039;-76
2021/07/28 08:06:51;;;;;;;14.32;9.43;;;;;;;29.31;44.04;95360.72;5106176;28;20050;-76
2021/07/28 08:09:18;;;;;;;21.23;10.40;;;;;;;29.39;48.46;95349.09;5088607;28;20485;-76
2021/07/28 08:11:45;;;;;;;17.85;9.57;;;;;;;29.55;45.73;95355.31;5110511;27;20140;-76
2021/07/28 08:14:11;;;;;;;13.77;8.35;;;;;;;29.71;44.42;95357.28;5111023;27;20067;-77
2021/07/28 08:16:39;;;;;;;12.25;8.48;;;;;;;29.68;43.83;95347.22;5111577;27;20051;-76
2021/07/28 08:19:06;;;;;;;14.65;8.50;;;;;;;29.90;41.87;95349.41;5109228;27;20035;-77
2021/07/28 08:21:33;;;;;;;21.70;8.65;;;;;;;30.03;41.10;95346.66;5109760;27;20042;-76
2021/07/28 08:24:00;;;;;;;15.02;8.93;;;;;;;30.12;41.17;95344.59;5108786;27;20044;-76
2021/07/28 08:26:27;;;;;;;21.10;9.05;;;;;;;30.39;42.83;95331.50;5108069;27;20067;-77
2021/07/28 08:28:54;;;;;;;17.25;9.25;;;;;;;30.54;42.08;95336.09;5109329;27;20049;-76
2021/07/28 08:31:21;;;;;;;15.98;9.07;;;;;;;30.63;38.69;95336.69;5107641;28;20039;-77
2021/07/28 08:33:48;;;;;;;21.13;8.23;;;;;;;30.84;38.88;95338.31;5107481;28;20031;-77
2021/07/28 08:36:15;;;;;;;15.60;8.55;;;;;;;30.78;37.04;95337.03;5107921;28;20036;-74
2021/07/28 08:38:41;;;;;;;22.77;7.60;;;;;;;31.19;36.40;95340.31;5111391;27;20043;-75
2021/07/28 08:41:10;;;;;;;13.73;7.97;;;;;;;30.96;36.90;95343.63;5109681;27;20047;-75
2021/07/28 08:43:38;;;;;;;23.27;12.90;;;;;;;31.22;36.80;95336.88;5106700;27;20039;-75
2021/07/28 08:46:07;;;;;;;38.22;22.40;;;;;;;31.15;38.94;95347.50;5108066;27;20077;-75
2021/07/28 08:48:35;;;;;;;14.68;9.43;;;;;;;31.28;36.45;95348.94;5106028;27;20127;-75
2021/07/28 08:51:04;;;;;;;29.25;8.23;;;;;;;31.49;35.88;95345.94;5087507;28;20043;-75
2021/07/28 08:53:33;;;;;;;24.15;8.38;;;;;;;31.91;37.64;95341.75;5106796;27;20048;-75
2021/07/28 08:56:01;;;;;;;21.10;8.73;;;;;;;32.00;34.63;95345.03;5105918;27;20039;-75
2021/07/28 08:58:29;;;;;;;21.75;8.02;;;;;;;32.08;33.66;95324.41;5106951;28;20040;-75
2021/07/28 09:00:57;;;;;;;20.15;8.85;;;;;;;32.32;34.64;95340.25;5106173;28;20109;-75
2021/07/28 09:03:24;;;;;;;18.25;9.70;;;;;;;32.19;36.17;95336.94;5106381;28;20046;-76
2021/07/28 09:05:52;;;;;;;16.67;7.97;;;;;;;32.14;37.84;95339.94;5107649;27;20460;-75
2021/07/28 09:08:27;;;;;;;23.33;7.47;;;;;;;32.50;36.50;95328.97;5106827;27;20123;-75
2021/07/28 09:10:59;;;;;;;19.88;7.53;;;;;;;32.68;33.66;95315.81;5105734;27;20095;-75
2021/07/28 09:13:33;;;;;;;18.10;8.43;;;;;;;33.11;32.71;95324.53;5108104;28;20043;-76
2021/07/28 09:16:03;;;;;;;21.00;8.88;;;;;;;33.25;33.78;95324.75;5107510;27;20067;-76
2021/07/28 09:18:32;;;;;;;14.20;7.97;;;;;;;33.44;32.66;95323.06;5106896;28;20046;-75
2021/07/28 09:20:59;;;;;;;23.33;7.68;;;;;;;33.39;34.89;95320.72;5106731;27;20427;-75
2021/07/28 09:23:40;;;;;;;17.90;8.48;;;;;;;33.48;32.18;95321.19;5107209;28;20039;-75
2021/07/28 09:26:33;;;;;;;18.95;7.40;;;;;;;33.44;31.57;95315.75;5107320;27;20050;-75
2021/07/28 09:29:09;;;;;;;14.38;7.95;;;;;;;33.69;29.82;95318.78;5107621;28;20524;-75
2021/07/28 09:31:43;;;;;;;21.35;8.25;;;;;;;34.00;30.29;95319.50;5107132;28;20051;-76
2021/07/28 09:34:21;;;;;;;20.67;8.65;;;;;;;34.28;30.19;95313.59;5100571;27;20039;-75
2021/07/28 09:36:49;;;;;;;17.95;8.23;;;;;;;33.89;31.46;95313.22;5105237;27;20059;-75
2021/07/28 09:39:36;;;;;;;18.23;7.70;;;;;;;34.58;29.39;95306.53;5107744;27;20496;-75
2021/07/28 09:42:10;;;;;;;15.13;6.95;;;;;;;34.50;27.69;95310.31;5105307;27;20086;-75
2021/07/28 09:44:48;;;;;;;26.40;8.85;;;;;;;35.05;28.94;95302.25;5106838;27;20043;-75
2021/07/28 09:47:18;;;;;;;20.67;7.95;;;;;;;35.54;27.41;95309.06;5106703;27;20427;-75
2021/07/28 09:49:50;;;;;;;23.70;7.90;;;;;;;36.01;26.50;95306.53;5106504;27;20063;-75
2021/07/28 09:52:22;;;;;;;14.07;7.35;;;;;;;36.09;27.26;95307.34;5106775;27;20822;-75
2021/07/28 09:54:51;;;;;;;24.05;8.00;;;;;;;36.21;26.25;95301.56;5084161;28;20048;-75
2021/07/28 09:57:20;;;;;;;20.38;7.65;;;;;;;36.23;24.90;95298.47;5086490;28;20051;-75
2021/07/28 10:00:06;;;;;;;18.35;6.97;;;;;;;36.80;25.40;95297.72;5084698;28;20036;-75
2021/07/28 10:02:34;;;;;;;15.88;7.22;;;;;;;37.21;25.77;95294.56;5083799;28;20040;-75
2021/07/28 10:05:04;;;;;;;25.08;7.65;;;;;;;36.83;24.07;95286.09;5085729;28;20458;-76
2021/07/28 10:07:33;;;;;;;20.17;7.22;;;;;;;36.09;25.46;95288.38;5082037;27;20044;-75
2021/07/28 10:10:03;;;;;;;21.33;7.95;;;;;;;36.78;24.03;95300.03;5085122;28;20033;-75
2021/07/28 10:12:34;;;;;;;26.98;6.38;;;;;;;37.18;23.58;95289.91;5085135;28;20579;-74
2021/07/28 10:15:03;;;;;;;21.73;6.70;;;;;;;37.30;22.61;95286.78;5079438;28;20036;-76
2021/07/28 10:17:31;;;;;;;18.75;6.85;;;;;;;37.59;22.83;95286.66;5083333;28;20052;-75
2021/07/28 10:19:59;;;;;;;13.45;6.55;;;;;;;37.78;22.93;95283.47;5084758;28;20032;-75
2021/07/28 10:22:30;;;;;;;13.50;7.30;;;;;;;37.83;24.16;95285.78;5079954;28;20079;-76
2021/07/28 10:24:58;;;;;;;16.60;6.90;;;;;;;37.98;24.01;95274.84;5084139;28;20868;-75
2021/07/28 10:27:25;;;;;;;13.13;6.00;;;;;;;37.97;22.00;95278.72;5085204;28;20055;-76
2021/07/28 10:29:52;;;;;;;17.88;7.63;;;;;;;37.56;24.07;95276.56;5084313;28;20036;-75
2021/07/28 10:32:33;;;;;;;16.58;6.45;;;;;;;37.47;24.90;95277.78;5081611;28;20052;-78
2021/07/28 10:35:29;;;;;;;21.50;6.43;;;;;;;37.16;23.19;95275.94;5085402;28;20043;-76
2021/07/28 10:38:05;;;;;;;17.15;7.05;;;;;;;37.43;24.58;95274.28;5083122;28;20139;-76
2021/07/28 10:40:48;;;;;;;17.23;6.43;;;;;;;38.05;23.04;95269.34;5088184;28;20048;-75
2021/07/28 10:43:15;;;;;;;17.33;6.43;;;;;;;37.84;22.35;95265.56;5086496;28;20062;-77
2021/07/28 10:45:53;;;;;;;21.55;6.68;;;;;;;38.04;21.81;95267.78;5084583;28;20507;-77
2021/07/28 10:48:52;;;;;;;23.55;6.85;;;;;;;38.42;23.28;95260.53;5086774;28;20066;-76
2021/07/28 10:51:51;;;;;;;20.88;6.80;;;;;;;39.02;23.46;95262.34;5041647;28;20044;-77
2021/07/28 10:54:38;;;;;;;19.15;6.78;;;;;;;39.09;22.46;95262.28;5087407;28;20119;-78
2021/07/28 10:57:07;;;;;;;13.07;5.93;;;;;;;39.31;22.24;95262.78;5086159;28;20042;-78
2021/07/28 10:59:43;;;;;;;28.98;7.10;;;;;;;39.66;22.20;95255.38;5088417;28;20051;-78
2021/07/28 11:02:09;;;;;;;12.00;6.70;;;;;;;39.74;22.89;95254.09;5085422;28;20047;-78
2021/07/28 11:04:36;;;;;;;21.60;6.85;;;;;;;40.04;20.96;95253.31;5088918;28;20482;-76
2021/07/28 11:07:03;;;;;;;12.43;6.85;;;;;;;40.01;22.02;95254.13;5081933;28;20042;-77
2021/07/28 11:09:30;;;;;;;21.92;7.07;;;;;;;40.37;21.05;95259.03;5088650;28;20032;-78
2021/07/28 11:11:58;;;;;;;34.35;7.28;;;;;;;40.68;20.84;95261.66;5083625;28;20060;-78
2021/07/28 11:14:26;;;;;;;19.70;6.70;;;;;;;40.66;20.74;95258.56;5084817;28;20036;-78
2021/07/28 11:16:54;;;;;;;32.55;7.05;;;;;;;40.21;22.02;95258.88;5082466;28;20058;-78
2021/07/28 11:19:21;;;;;;;22.15;7.30;;;;;;;40.58;20.10;95257.16;5084919;28;20032;-78
2021/07/28 11:21:48;;;;;;;20.10;8.38;;;;;;;40.80;19.13;95261.06;5084152;28;20513;-79
2021/07/28 11:24:17;;;;;;;26.95;7.95;;;;;;;40.78;19.89;95252.50;5084431;28;20044;-78
2021/07/28 11:26:45;;;;;;;31.65;7.50;;;;;;;40.94;19.04;95251.09;5082172;28;20060;-77
2021/07/28 11:29:20;;;;;;;25.30;6.80;;;;;;;41.39;17.92;95245.16;5084049;28;20123;-78